Time;durP1;ratioP1;P1;durP2;ratioP2;P2;SDS_P1;SDS_P2;PMS_P1;PMS_P2;Temp;Humidity;BMP_temperature;BMP_pressure;BME280_temperature;BME280_humidity;BME280_pressure;Samples;Min_cycle;Max_cycle;Signal;HPM_P1;HPM_P2
2023/11/18 00:00:25;;;;;;;2.97;2.28;;;;;;;2.07;100.00;99202.69;6101131;19;20484;-74
2023/11/18 00:02:25;;;;;;;3.53;2.47;;;;;;;2.10;100.00;99207.56;6102009;19;20521;-75
2023/11/18 00:04:25;;;;;;;3.63;2.20;;;;;;;2.09;100.00;99201.28;6101625;19;20652;-74
2023/11/18 00:06:26;;;;;;;5.63;2.40;;;;;;;2.12;100.00;99213.53;6099901;19;20253;-74
2023/11/18 00:08:26;;;;;;;3.72;2.63;;;;;;;2.12;100.00;99202.59;6101475;19;20056;-74
2023/11/18 00:10:27;;;;;;;3.95;3.00;;;;;;;2.08;100.00;99209.78;6101674;19;20009;-75
2023/11/18 00:12:27;;;;;;;2.15;1.85;;;;;;;2.02;100.00;99203.63;6100936;19;20363;-74
2023/11/18 00:14:27;;;;;;;4.05;2.40;;;;;;;1.98;100.00;99205.31;6099423;19;20343;-75
2023/11/18 00:16:29;;;;;;;4.45;2.30;;;;;;;1.93;100.00;99213.63;6097268;19;20010;-75
2023/11/18 00:18:31;;;;;;;3.70;1.95;;;;;;;1.87;100.00;99206.66;6098485;19;20016;-75
2023/11/18 00:20:32;;;;;;;4.15;2.13;;;;;;;1.92;100.00;99214.75;6096707;19;20010;-75
2023/11/18 00:22:32;;;;;;;4.55;2.20;;;;;;;1.87;100.00;99220.28;6100440;19;20357;-74
2023/11/18 00:24:34;;;;;;;4.35;2.10;;;;;;;1.84;100.00;99210.81;6098866;19;20469;-75
2023/11/18 00:26:34;;;;;;;3.70;2.13;;;;;;;1.81;100.00;99216.84;6099895;19;20014;-75
2023/11/18 00:28:35;;;;;;;4.22;2.10;;;;;;;1.82;100.00;99217.66;6100727;19;20010;-74
2023/11/18 00:30:35;;;;;;;2.95;1.92;;;;;;;1.81;100.00;99219.56;6101641;19;20011;-75
2023/11/18 00:32:36;;;;;;;9.93;2.45;;;;;;;1.80;100.00;99217.97;6101139;19;20012;-75
2023/11/18 00:34:36;;;;;;;3.40;2.20;;;;;;;1.85;100.00;99215.16;6100418;19;20011;-75
2023/11/18 00:36:36;;;;;;;3.55;1.90;;;;;;;1.88;100.00;99219.19;6099758;19;20305;-75
2023/11/18 00:38:37;;;;;;;2.88;2.03;;;;;;;1.92;100.00;99222.94;6097589;19;20021;-75
2023/11/18 00:40:37;;;;;;;4.70;1.90;;;;;;;1.96;100.00;99216.56;6097780;19;20341;-74
2023/11/18 00:42:38;;;;;;;2.65;1.90;;;;;;;1.91;100.00;99216.66;6098843;19;20508;-74
2023/11/18 00:44:38;;;;;;;4.32;2.38;;;;;;;1.87;100.00;99214.84;6100801;19;20002;-75
2023/11/18 00:46:39;;;;;;;2.92;1.88;;;;;;;1.85;100.00;99217.06;6094880;19;20013;-75
2023/11/18 00:48:39;;;;;;;2.60;1.70;;;;;;;1.85;100.00;99219.78;6099864;19;20019;-75
2023/11/18 00:50:39;;;;;;;2.42;1.77;;;;;;;1.83;100.00;99222.84;6101798;19;20026;-75
2023/11/18 00:52:43;;;;;;;3.53;2.00;;;;;;;1.78;100.00;99228.38;6100894;19;20027;-75
2023/11/18 00:54:43;;;;;;;3.33;2.05;;;;;;;1.85;100.00;99225.25;6101044;19;20482;-74
2023/11/18 00:56:43;;;;;;;3.15;1.80;;;;;;;1.79;100.00;99219.06;6099854;19;20073;-75
2023/11/18 00:58:44;;;;;;;3.35;1.95;;;;;;;1.84;100.00;99226.38;6099202;19;20454;-75
2023/11/18 01:00:44;;;;;;;5.15;1.83;;;;;;;1.87;100.00;99226.56;6099932;19;20014;-75
2023/11/18 01:02:47;;;;;;;5.32;2.15;;;;;;;1.83;100.00;99222.84;6100071;19;20348;-75
2023/11/18 01:04:48;;;;;;;4.30;2.10;;;;;;;1.84;100.00;99234.56;6101440;19;20336;-75
2023/11/18 01:06:48;;;;;;;3.00;2.13;;;;;;;1.84;100.00;99235.34;6098008;19;20021;-75
2023/11/18 01:08:49;;;;;;;3.58;2.00;;;;;;;1.82;100.00;99237.59;6100193;19;20066;-75
2023/11/18 01:10:49;;;;;;;5.57;2.20;;;;;;;1.80;100.00;99236.25;6099774;19;20429;-75
2023/11/18 01:12:49;;;;;;;2.72;2.10;;;;;;;1.74;100.00;99241.00;6099405;19;20014;-75
2023/11/18 01:14:49;;;;;;;3.13;2.17;;;;;;;1.71;100.00;99246.25;6099981;19;20010;-75
2023/11/18 01:16:50;;;;;;;3.47;1.83;;;;;;;1.68;100.00;99243.03;6097975;19;20025;-75
2023/11/18 01:18:50;;;;;;;3.58;2.58;;;;;;;1.67;100.00;99241.41;6099690;19;20219;-75
2023/11/18 01:20:51;;;;;;;5.03;2.53;;;;;;;1.69;100.00;99241.91;6100333;19;20101;-74
2023/11/18 01:22:51;;;;;;;3.10;2.13;;;;;;;1.69;100.00;99247.38;6099548;19;20006;-74
2023/11/18 01:24:52;;;;;;;3.00;2.22;;;;;;;1.71;100.00;99251.69;6100194;19;20002;-75
2023/11/18 01:26:52;;;;;;;3.75;1.98;;;;;;;1.73;100.00;99241.28;6098681;19;20293;-75
2023/11/18 01:28:52;;;;;;;2.88;2.20;;;;;;;1.77;100.00;99242.31;6090119;19;20477;-75
2023/11/18 01:30:53;;;;;;;3.67;2.22;;;;;;;1.79;100.00;99249.09;6100430;19;20006;-75
2023/11/18 01:32:53;;;;;;;2.58;1.95;;;;;;;1.80;100.00;99247.16;6099134;19;20543;-74
2023/11/18 01:34:53;;;;;;;4.53;1.90;;;;;;;1.78;100.00;99236.56;6099179;19;20352;-75
2023/11/18 01:36:54;;;;;;;2.78;1.80;;;;;;;1.79;100.00;99240.09;6094415;19;20336;-75
2023/11/18 01:38:55;;;;;;;2.38;1.70;;;;;;;1.81;100.00;99254.25;6090104;19;20070;-75
2023/11/18 01:40:55;;;;;;;4.32;2.30;;;;;;;1.81;100.00;99249.59;6093463;19;20031;-75
2023/11/18 01:42:55;;;;;;;3.30;1.83;;;;;;;1.83;100.00;99254.78;6089520;19;20015;-75
2023/11/18 01:44:56;;;;;;;6.20;2.25;;;;;;;1.90;100.00;99255.16;6093720;19;20011;-75
2023/11/18 01:46:58;;;;;;;4.38;1.63;;;;;;;1.95;100.00;99257.81;6094432;19;20093;-75
2023/11/18 01:48:58;;;;;;;2.95;2.13;;;;;;;1.95;100.00;99249.63;6098188;19;20012;-75
2023/11/18 01:51:01;;;;;;;3.83;2.47;;;;;;;2.01;100.00;99258.53;6099072;19;20007;-75
2023/11/18 01:53:02;;;;;;;;;;;;;;;2.05;100.00;99252.13;6099232;19;20006;-75
2023/11/18 01:55:06;;;;;;;2.55;1.80;;;;;;;2.02;100.00;99251.94;6098271;19;19922;-75
2023/11/18 01:57:09;;;;;;;2.53;1.80;;;;;;;2.01;100.00;99267.50;6095773;19;20006;-75
2023/11/18 01:59:10;;;;;;;;;;;;;;;2.01;100.00;99261.25;6096042;19;20017;-75
2023/11/18 02:01:10;;;;;;;2.03;1.50;;;;;;;1.97;100.00;99256.38;6098277;19;19919;-75
2023/11/18 02:03:11;;;;;;;3.03;2.30;;;;;;;1.99;100.00;99272.47;6105351;19;20006;-76
2023/11/18 02:05:12;;;;;;;4.70;2.17;;;;;;;1.96;100.00;99259.41;6105293;19;20011;-75
2023/11/18 02:07:15;;;;;;;3.80;2.60;;;;;;;1.95;100.00;99258.59;6104559;19;20007;-75
2023/11/18 02:09:19;;;;;;;19.85;10.75;;;;;;;1.98;100.00;99249.00;6105161;19;20526;-75
2023/11/18 02:11:25;;;;;;;27.80;13.32;;;;;;;1.97;100.00;99255.56;6100717;19;20010;-75
2023/11/18 02:13:31;;;;;;;15.88;7.97;;;;;;;1.91;100.00;99254.06;6104152;19;20007;-75
2023/11/18 02:15:37;;;;;;;13.80;7.50;;;;;;;1.88;100.00;99255.47;6099711;19;20002;-75
2023/11/18 02:17:38;;;;;;;24.67;12.38;;;;;;;1.84;100.00;99253.66;6098451;19;20070;-75
2023/11/18 02:19:40;;;;;;;13.25;7.05;;;;;;;1.84;100.00;99251.72;6100343;19;20011;-75
2023/11/18 02:21:40;;;;;;;4.88;2.78;;;;;;;1.80;100.00;99258.09;6100285;19;20002;-75
2023/11/18 02:23:42;;;;;;;3.58;1.75;;;;;;;1.82;100.00;99256.69;6098407;19;20351;-75
2023/11/18 02:25:45;;;;;;;2.70;1.63;;;;;;;1.88;100.00;99262.84;6096877;19;20002;-75
2023/11/18 02:27:46;;;;;;;4.05;2.20;;;;;;;1.82;100.00;99267.59;6095619;19;20027;-75
2023/11/18 02:29:48;;;;;;;3.25;2.10;;;;;;;1.76;100.00;99257.06;6094909;19;20549;-74
2023/11/18 02:31:53;;;;;;;2.72;1.60;;;;;;;1.71;100.00;99268.88;6095329;19;20093;-74
2023/11/18 02:34:06;;;;;;;2.28;1.75;;;;;;;1.61;100.00;99261.69;6094891;19;20018;-75
2023/11/18 02:36:14;;;;;;;6.50;2.40;;;;;;;1.57;100.00;99270.75;6092627;19;20081;-76
2023/11/18 02:38:19;;;;;;;2.85;1.83;;;;;;;1.46;100.00;99270.13;6093900;19;20435;-75
2023/11/18 02:40:30;;;;;;;5.15;2.00;;;;;;;1.36;100.00;99265.66;6094403;19;20213;-75
2023/11/18 02:42:30;;;;;;;2.75;2.13;;;;;;;1.30;100.00;99260.59;6093295;19;20033;-75
2023/11/18 02:44:32;;;;;;;2.90;2.30;;;;;;;1.24;100.00;99268.06;6094824;19;20678;-75
2023/11/18 02:46:32;;;;;;;6.30;2.00;;;;;;;1.20;100.00;99271.66;6093400;19;20229;-75
2023/11/18 02:48:32;;;;;;;3.00;2.20;;;;;;;1.13;100.00;99261.13;6093832;19;20324;-75
2023/11/18 02:50:35;;;;;;;3.65;2.35;;;;;;;1.12;100.00;99267.69;6094466;19;20007;-75
2023/11/18 02:52:35;;;;;;;5.60;2.30;;;;;;;1.06;100.00;99261.50;6095088;19;20029;-75
2023/11/18 02:54:36;;;;;;;4.93;2.53;;;;;;;1.07;100.00;99265.03;6094114;19;20011;-74
2023/11/18 02:56:37;;;;;;;3.75;2.25;;;;;;;1.06;100.00;99266.97;6092360;19;20400;-74
2023/11/18 02:58:37;;;;;;;3.67;1.92;;;;;;;0.99;100.00;99261.06;6093744;19;20315;-75
2023/11/18 03:00:38;;;;;;;4.70;2.88;;;;;;;0.95;100.00;99264.69;6093965;19;20106;-75
2023/11/18 03:02:39;;;;;;;3.72;1.90;;;;;;;0.89;100.00;99269.41;6093424;19;20498;-75
2023/11/18 03:04:42;;;;;;;4.40;2.20;;;;;;;0.81;100.00;99272.78;6093634;19;20006;-75
2023/11/18 03:06:43;;;;;;;4.50;2.30;;;;;;;0.73;100.00;99276.16;6093570;19;20512;-75
2023/11/18 03:08:43;;;;;;;3.22;2.45;;;;;;;0.66;100.00;99265.63;6093407;19;20002;-75
2023/11/18 03:10:44;;;;;;;3.63;2.38;;;;;;;0.62;100.00;99270.06;6093775;19;20085;-75
2023/11/18 03:12:45;;;;;;;3.15;2.40;;;;;;;0.60;100.00;99274.19;6092936;19;20002;-75
2023/11/18 03:14:46;;;;;;;2.90;2.15;;;;;;;0.55;100.00;99272.34;6094360;19;20577;-75
2023/11/18 03:16:46;;;;;;;3.92;2.20;;;;;;;0.49;100.00;99268.03;6092669;19;20002;-75
2023/11/18 03:18:46;;;;;;;4.63;2.63;;;;;;;0.44;100.00;99279.03;6093943;19;20383;-75
2023/11/18 03:20:49;;;;;;;4.85;2.00;;;;;;;0.43;100.00;99275.50;6092466;19;20010;-75
2023/11/18 03:22:51;;;;;;;4.00;2.20;;;;;;;0.38;100.00;99278.28;6093580;19;20086;-75
2023/11/18 03:24:51;;;;;;;3.38;2.08;;;;;;;0.33;100.00;99281.03;6092510;19;20010;-74
2023/11/18 03:26:51;;;;;;;9.70;3.03;;;;;;;0.26;100.00;99281.41;6091653;19;20426;-75
2023/11/18 03:28:52;;;;;;;3.25;2.33;;;;;;;0.27;100.00;99280.31;6098244;19;20342;-75
2023/11/18 03:30:53;;;;;;;3.53;2.22;;;;;;;0.26;100.00;99262.38;6101537;19;20637;-75
2023/11/18 03:32:53;;;;;;;4.47;2.08;;;;;;;0.22;100.00;99274.13;6101681;19;20010;-75
2023/11/18 03:34:53;;;;;;;3.65;2.10;;;;;;;0.25;100.00;99276.28;6102789;19;20006;-75
2023/11/18 03:36:57;;;;;;;2.63;2.05;;;;;;;0.22;100.00;99279.56;6100132;19;20555;-75
2023/11/18 03:38:57;;;;;;;5.78;2.70;;;;;;;0.17;100.00;99283.16;6101239;19;20029;-75
2023/11/18 03:40:58;;;;;;;5.10;2.65;;;;;;;0.19;100.00;99275.50;6101600;19;20003;-75
2023/11/18 03:42:58;;;;;;;4.60;2.53;;;;;;;0.19;100.00;99274.69;6102182;19;20221;-75
2023/11/18 03:44:58;;;;;;;4.18;2.55;;;;;;;0.17;100.00;99266.03;6101433;19;20021;-75
2023/11/18 03:46:59;;;;;;;4.10;2.40;;;;;;;0.16;100.00;99270.63;6100284;19;20015;-75
2023/11/18 03:49:00;;;;;;;3.45;2.58;;;;;;;0.12;100.00;99266.06;6101641;19;20086;-75
2023/11/18 03:51:03;;;;;;;3.00;2.00;;;;;;;0.03;100.00;99265.91;6101459;19;20018;-75
2023/11/18 03:53:03;;;;;;;3.58;2.65;;;;;;;-0.03;100.00;99267.84;6099455;19;20003;-75
2023/11/18 03:55:07;;;;;;;4.22;2.45;;;;;;;-0.06;100.00;99267.63;6100721;19;20101;-75
2023/11/18 03:57:08;;;;;;;6.78;2.42;;;;;;;-0.15;100.00;99272.09;6100010;19;20009;-75
2023/11/18 03:59:09;;;;;;;4.20;2.22;;;;;;;-0.19;100.00;99279.19;6101488;19;20006;-75
2023/11/18 04:01:11;;;;;;;3.20;2.35;;;;;;;-0.28;100.00;99279.00;6102545;19;20029;-75
2023/11/18 04:03:11;;;;;;;3.70;2.50;;;;;;;-0.34;100.00;99280.97;6101647;19;20005;-75
2023/11/18 04:05:12;;;;;;;4.13;2.38;;;;;;;-0.43;100.00;99279.16;6101355;19;20074;-74
2023/11/18 04:07:12;;;;;;;4.03;2.53;;;;;;;-0.52;100.00;99284.41;6100094;19;20475;-75
2023/11/18 04:09:14;;;;;;;5.65;3.22;;;;;;;-0.54;100.00;99292.03;6099145;19;20553;-75
2023/11/18 04:11:14;;;;;;;3.85;2.85;;;;;;;-0.55;100.00;99298.56;6100963;19;20010;-75
2023/11/18 04:13:15;;;;;;;5.10;2.92;;;;;;;-0.57;100.00;99288.00;6101793;19;20007;-75
2023/11/18 04:15:15;;;;;;;3.70;2.88;;;;;;;-0.54;100.00;99293.94;6101222;19;20358;-75
2023/11/18 04:17:16;;;;;;;4.95;3.10;;;;;;;-0.59;100.00;99294.78;6100118;19;20038;-75
2023/11/18 04:19:17;;;;;;;7.65;3.38;;;;;;;-0.64;100.00;99300.28;6100710;19;20143;-75
2023/11/18 04:21:17;;;;;;;5.38;3.38;;;;;;;-0.69;100.00;99309.28;6101175;19;20309;-75
2023/11/18 04:23:18;;;;;;;5.85;3.35;;;;;;;-0.75;100.00;99301.44;6100365;19;20036;-75
2023/11/18 04:25:19;;;;;;;5.95;3.72;;;;;;;-0.82;100.00;99298.25;6101148;19;20014;-75
2023/11/18 04:27:19;;;;;;;7.65;4.25;;;;;;;-0.84;100.00;99301.22;6099950;19;20012;-74
2023/11/18 04:29:21;;;;;;;6.82;3.80;;;;;;;-0.82;100.00;99290.09;6100789;19;20361;-74
2023/11/18 04:31:21;;;;;;;8.05;4.47;;;;;;;-0.83;100.00;99305.56;6101051;19;20011;-75
2023/11/18 04:33:22;;;;;;;4.93;3.80;;;;;;;-0.83;100.00;99297.41;6101225;19;20006;-75
2023/11/18 04:35:24;;;;;;;6.53;3.50;;;;;;;-0.83;100.00;99310.19;6100851;19;20006;-75
2023/11/18 04:37:24;;;;;;;8.15;3.78;;;;;;;-0.85;100.00;99296.91;6097103;19;20355;-75
2023/11/18 04:39:25;;;;;;;5.60;3.47;;;;;;;-0.87;100.00;99301.81;6100770;19;20006;-75
2023/11/18 04:41:26;;;;;;;4.43;3.28;;;;;;;-0.92;100.00;99299.94;6101245;19;20301;-75
2023/11/18 04:43:26;;;;;;;5.28;3.17;;;;;;;-0.93;100.00;99297.50;6099339;19;20059;-75
2023/11/18 04:45:26;;;;;;;4.75;3.00;;;;;;;-0.89;100.00;99293.13;6099076;19;20037;-75
2023/11/18 04:47:26;;;;;;;5.35;3.60;;;;;;;-0.85;100.00;99286.03;6099082;19;20354;-75
2023/11/18 04:49:27;;;;;;;4.72;3.33;;;;;;;-0.82;100.00;99284.69;6100558;19;20540;-74
2023/11/18 04:51:27;;;;;;;3.63;2.58;;;;;;;-0.80;100.00;99277.84;6099657;19;20041;-75
2023/11/18 04:53:27;;;;;;;3.85;3.05;;;;;;;-0.82;100.00;99277.34;6100509;19;20015;-75
2023/11/18 04:55:28;;;;;;;5.20;3.33;;;;;;;-0.90;100.00;99273.31;6100642;19;20010;-75
2023/11/18 04:57:29;;;;;;;6.53;3.15;;;;;;;-0.92;100.00;99271.94;6098680;19;20467;-75
2023/11/18 04:59:30;;;;;;;5.28;3.42;;;;;;;-0.94;100.00;99277.66;6100346;19;20471;-75
2023/11/18 05:01:31;;;;;;;4.72;3.28;;;;;;;-1.05;100.00;99278.03;6100831;19;20010;-75
2023/11/18 05:03:32;;;;;;;5.15;3.28;;;;;;;-1.16;100.00;99269.97;6099681;19;20010;-75
2023/11/18 05:05:33;;;;;;;5.95;3.22;;;;;;;-1.13;100.00;99274.81;6100286;19;20121;-74
2023/11/18 05:07:34;;;;;;;6.78;3.38;;;;;;;-1.15;100.00;99277.03;6098410;19;20034;-74
2023/11/18 05:09:34;;;;;;;5.90;3.60;;;;;;;-1.06;100.00;99279.13;6099651;19;20014;-74
2023/11/18 05:11:35;;;;;;;4.53;3.08;;;;;;;-1.00;100.00;99269.84;6100275;19;20017;-75
2023/11/18 05:13:36;;;;;;;4.55;2.85;;;;;;;-0.91;100.00;99282.56;6099365;19;20010;-74
2023/11/18 05:15:37;;;;;;;4.80;3.28;;;;;;;-0.88;100.00;99289.31;6099586;19;20014;-74
2023/11/18 05:17:38;;;;;;;6.28;3.42;;;;;;;-0.92;100.00;99280.91;6098260;19;20338;-75
2023/11/18 05:19:38;;;;;;;7.10;3.60;;;;;;;-0.92;100.00;99274.66;6099620;19;20066;-74
2023/11/18 05:21:39;;;;;;;7.03;4.35;;;;;;;-0.96;100.00;99269.00;6099728;19;20958;-74
2023/11/18 05:23:39;;;;;;;11.20;6.85;;;;;;;-1.03;100.00;99273.94;6105600;19;20046;-74
2023/11/18 05:25:40;;;;;;;13.65;7.47;;;;;;;-1.10;100.00;99283.50;6104994;19;20031;-74
2023/11/18 05:27:40;;;;;;;11.00;7.05;;;;;;;-1.21;100.00;99278.13;6102753;19;20403;-74
2023/11/18 05:29:53;;;;;;;11.73;7.50;;;;;;;-1.35;100.00;99282.56;6103880;19;20336;-74
2023/11/18 05:31:57;;;;;;;11.13;7.63;;;;;;;-1.48;100.00;99278.56;6105227;19;20566;-74
2023/11/18 05:33:57;;;;;;;11.07;7.32;;;;;;;-1.48;100.00;99272.34;6105055;19;20463;-75
2023/11/18 05:35:58;;;;;;;10.18;6.63;;;;;;;-1.54;100.00;99276.16;6103772;19;20095;-74
2023/11/18 05:37:59;;;;;;;9.23;6.75;;;;;;;-1.52;100.00;99269.34;6103158;19;20015;-75
2023/11/18 05:40:05;;;;;;;9.20;6.10;;;;;;;-1.48;100.00;99277.75;6104906;19;20457;-75
2023/11/18 05:42:06;;;;;;;8.30;5.45;;;;;;;-1.38;100.00;99272.28;6104525;19;20530;-74
2023/11/18 05:44:09;;;;;;;10.60;5.18;;;;;;;-1.44;100.00;99259.81;6103621;19;20247;-74
2023/11/18 05:46:22;;;;;;;9.05;4.38;;;;;;;-1.50;100.00;99263.63;6103356;19;20485;-75
2023/11/18 05:48:23;;;;;;;7.93;5.00;;;;;;;-1.54;100.00;99266.09;6105355;19;20010;-74
2023/11/18 05:50:26;;;;;;;5.53;3.67;;;;;;;-1.57;100.00;99257.69;6102769;19;20006;-74
2023/11/18 05:52:27;;;;;;;7.07;3.58;;;;;;;-1.63;100.00;99253.41;6104942;19;20006;-74
2023/11/18 05:54:27;;;;;;;6.63;3.70;;;;;;;-1.63;100.00;99250.69;6104651;19;20015;-74
2023/11/18 05:56:27;;;;;;;7.55;4.10;;;;;;;-1.66;100.00;99252.03;6102912;19;20006;-74
2023/11/18 05:58:28;;;;;;;5.10;3.80;;;;;;;-1.70;100.00;99245.56;6105137;19;20271;-75
2023/11/18 06:00:30;;;;;;;5.53;3.83;;;;;;;-1.69;100.00;99249.91;6104821;19;20013;-74
2023/11/18 06:02:31;;;;;;;7.53;3.83;;;;;;;-1.70;100.00;99257.22;6104538;19;20073;-74
2023/11/18 06:04:31;;;;;;;8.88;4.05;;;;;;;-1.67;100.00;99255.03;6104320;19;19998;-74
2023/11/18 06:06:32;;;;;;;5.28;3.33;;;;;;;-1.62;100.00;99247.69;6103419;19;20423;-74
2023/11/18 06:08:38;;;;;;;7.07;3.70;;;;;;;-1.61;100.00;99260.16;6104104;19;20514;-74
2023/11/18 06:10:39;;;;;;;6.85;4.15;;;;;;;-1.63;100.00;99269.69;6104751;19;20390;-74
2023/11/18 06:12:40;;;;;;;5.88;3.78;;;;;;;-1.66;100.00;99272.94;6104059;19;20010;-75
2023/11/18 06:14:41;;;;;;;12.15;3.60;;;;;;;-1.70;100.00;99268.09;6104087;19;20005;-75
2023/11/18 06:16:42;;;;;;;5.43;3.65;;;;;;;-1.74;100.00;99269.75;6103768;19;20014;-74
2023/11/18 06:18:44;;;;;;;7.50;4.05;;;;;;;-1.75;100.00;99268.09;6103889;19;20018;-75
2023/11/18 06:20:44;;;;;;;8.90;4.25;;;;;;;-1.73;100.00;99270.56;6104176;19;20016;-75
2023/11/18 06:22:45;;;;;;;8.45;4.45;;;;;;;-1.76;100.00;99276.50;6103617;19;20592;-75
2023/11/18 06:24:45;;;;;;;6.63;4.05;;;;;;;-1.79;100.00;99268.94;6104089;19;20235;-74
2023/11/18 06:26:46;;;;;;;6.70;4.03;;;;;;;-1.77;100.00;99275.72;6101901;19;20328;-75
2023/11/18 06:28:51;;;;;;;6.10;4.20;;;;;;;-1.72;100.00;99266.75;6092692;19;20045;-75
2023/11/18 06:30:51;;;;;;;10.13;4.35;;;;;;;-1.65;100.00;99271.88;6103086;19;20052;-75
2023/11/18 06:32:51;;;;;;;16.30;5.75;;;;;;;-1.61;100.00;99281.88;6101347;19;20419;-75
2023/11/18 06:34:53;;;;;;;12.55;5.03;;;;;;;-1.52;100.00;99284.81;6102269;19;20686;-75
2023/11/18 06:36:53;;;;;;;8.18;4.20;;;;;;;-1.49;100.00;99293.25;6099549;19;20043;-75
2023/11/18 06:38:55;;;;;;;7.70;4.40;;;;;;;-1.44;100.00;99303.25;6101883;19;20010;-75
2023/11/18 06:40:59;;;;;;;8.32;4.28;;;;;;;-1.43;100.00;99296.72;6102802;19;20014;-75
2023/11/18 06:43:02;;;;;;;11.48;3.95;;;;;;;-1.45;100.00;99301.63;6103195;19;20006;-75
2023/11/18 06:45:04;;;;;;;13.60;4.50;;;;;;;-1.46;100.00;99308.94;6102346;19;20332;-75
2023/11/18 06:47:06;;;;;;;6.15;4.20;;;;;;;-1.42;100.00;99311.91;6101086;19;20007;-75
2023/11/18 06:49:07;;;;;;;11.07;4.63;;;;;;;-1.33;100.00;99314.84;6099904;19;20033;-75
2023/11/18 06:51:08;;;;;;;9.77;4.88;;;;;;;-1.28;100.00;99318.34;6101811;19;20518;-75
2023/11/18 06:53:08;;;;;;;8.13;4.60;;;;;;;-1.33;100.00;99314.84;6101870;19;20341;-75
2023/11/18 06:55:08;;;;;;;7.88;4.32;;;;;;;-1.36;100.00;99315.41;6102029;19;20002;-75
2023/11/18 06:57:09;;;;;;;7.43;5.38;;;;;;;-1.31;100.00;99312.69;6102130;19;20010;-75
2023/11/18 06:59:12;;;;;;;10.88;5.53;;;;;;;-1.29;100.00;99318.66;6101459;19;20003;-75
2023/11/18 07:01:14;;;;;;;9.95;5.20;;;;;;;-1.35;100.00;99323.28;6101996;19;19998;-75
2023/11/18 07:03:16;;;;;;;10.00;5.70;;;;;;;-1.33;100.00;99321.09;6101753;19;20468;-75
2023/11/18 07:05:17;;;;;;;8.23;5.65;;;;;;;-1.27;100.00;99313.75;6100719;19;20034;-75
2023/11/18 07:07:18;;;;;;;10.77;6.03;;;;;;;-1.21;100.00;99316.16;6098582;19;20006;-75
2023/11/18 07:09:20;;;;;;;10.00;6.10;;;;;;;-1.18;100.00;99317.50;6102291;19;20011;-75
2023/11/18 07:11:21;;;;;;;10.38;6.43;;;;;;;-1.19;100.00;99318.59;6102352;19;20010;-75
2023/11/18 07:13:22;;;;;;;11.50;5.75;;;;;;;-1.23;100.00;99312.91;6102571;19;20405;-75
2023/11/18 07:15:23;;;;;;;10.13;6.43;;;;;;;-1.25;100.00;99315.06;6101445;19;20014;-75
2023/11/18 07:17:23;;;;;;;8.88;5.97;;;;;;;-1.26;100.00;99316.16;6100202;19;20470;-75
2023/11/18 07:19:23;;;;;;;12.60;7.70;;;;;;;-1.30;100.00;99301.53;6101811;19;20006;-75
2023/11/18 07:21:24;;;;;;;10.98;6.55;;;;;;;-1.28;100.00;99312.94;6103305;19;21028;-75
2023/11/18 07:23:24;;;;;;;11.30;6.38;;;;;;;-1.26;100.00;99315.34;6099568;19;20077;-75
2023/11/18 07:25:25;;;;;;;11.82;6.45;;;;;;;-1.23;100.00;99321.06;6102106;19;20089;-75
2023/11/18 07:27:25;;;;;;;14.00;6.97;;;;;;;-1.26;100.00;99318.06;6096576;19;20450;-75
2023/11/18 07:29:26;;;;;;;13.02;7.00;;;;;;;-1.29;100.00;99321.38;6093465;19;20010;-75
2023/11/18 07:31:28;;;;;;;12.30;6.97;;;;;;;-1.23;100.00;99336.53;6093095;19;20127;-75
2023/11/18 07:33:29;;;;;;;12.45;7.07;;;;;;;-1.16;100.00;99334.31;6093313;19;20021;-75
2023/11/18 07:35:29;;;;;;;9.88;6.63;;;;;;;-1.04;100.00;99339.41;6093477;19;20007;-75
2023/11/18 07:37:32;;;;;;;11.65;6.70;;;;;;;-0.98;100.00;99341.00;6092011;19;20002;-75
2023/11/18 07:39:55;;;;;;;9.55;6.90;;;;;;;-1.00;100.00;99346.69;6093606;19;20294;-75
2023/11/18 07:41:53;;;;;;;15.40;6.03;;;;;;;-0.98;100.00;99349.97;6093234;19;20007;-75
2023/11/18 07:43:55;;;;;;;12.45;5.78;;;;;;;-0.96;100.00;99347.78;6088760;19;20081;-75
2023/11/18 07:45:56;;;;;;;8.48;5.65;;;;;;;-0.93;100.00;99351.84;6091705;19;20010;-75
2023/11/18 07:47:56;;;;;;;13.32;5.78;;;;;;;-0.91;100.00;99358.63;6090808;19;20387;-75
2023/11/18 07:49:58;;;;;;;9.13;6.45;;;;;;;-0.83;100.00;99368.06;6091189;19;20246;-75
2023/11/18 07:51:59;;;;;;;9.27;6.15;;;;;;;-0.75;100.00;99366.66;6090369;19;20534;-75
2023/11/18 07:53:59;;;;;;;8.43;5.90;;;;;;;-0.64;100.00;99366.31;6091513;19;20439;-75
2023/11/18 07:56:01;;;;;;;10.27;6.43;;;;;;;-0.52;100.00;99351.56;6091657;19;20470;-75
2023/11/18 07:58:03;;;;;;;10.70;6.85;;;;;;;-0.47;100.00;99348.81;6091201;19;20343;-75
2023/11/18 08:00:10;;;;;;;9.50;6.50;;;;;;;-0.43;100.00;99349.84;6089737;19;20010;-75
2023/11/18 08:02:11;;;;;;;7.55;5.63;;;;;;;-0.38;100.00;99349.81;6090715;19;20336;-75
2023/11/18 08:04:14;;;;;;;8.25;5.55;;;;;;;-0.33;100.00;99341.63;6091659;19;20739;-75
2023/11/18 08:06:14;;;;;;;11.25;6.30;;;;;;;-0.31;100.00;99342.13;6091232;19;20006;-75
2023/11/18 08:08:16;;;;;;;8.27;5.45;;;;;;;-0.27;100.00;99335.03;6092462;19;20708;-75
2023/11/18 08:10:18;;;;;;;9.50;5.70;;;;;;;-0.21;100.00;99346.66;6092258;19;20294;-75
2023/11/18 08:12:20;;;;;;;9.50;5.07;;;;;;;-0.12;100.00;99337.59;6092983;19;20003;-75
2023/11/18 08:14:20;;;;;;;10.60;4.90;;;;;;;-0.05;100.00;99337.28;6092916;19;20013;-75
2023/11/18 08:16:22;;;;;;;6.55;4.03;;;;;;;-0.02;100.00;99323.09;6091220;19;20030;-75
2023/11/18 08:18:23;;;;;;;8.23;4.05;;;;;;;0.05;100.00;99311.88;6093208;19;20006;-75
2023/11/18 08:20:25;;;;;;;6.10;3.72;;;;;;;0.12;100.00;99310.41;6091894;19;20315;-75
2023/11/18 08:22:25;;;;;;;7.07;3.97;;;;;;;0.16;100.00;99322.34;6092096;19;20258;-75
2023/11/18 08:24:26;;;;;;;7.38;3.90;;;;;;;0.18;100.00;99330.22;6091856;19;20255;-74
2023/11/18 08:26:26;;;;;;;7.63;4.22;;;;;;;0.17;100.00;99332.16;6091457;19;20861;-75
2023/11/18 08:28:27;;;;;;;7.43;3.83;;;;;;;0.16;100.00;99333.22;6096078;19;20317;-75
2023/11/18 08:30:27;;;;;;;11.57;4.13;;;;;;;0.18;100.00;99335.69;6101146;19;20022;-75
2023/11/18 08:32:27;;;;;;;6.45;3.80;;;;;;;0.20;100.00;99334.28;6100999;19;20007;-75
2023/11/18 08:34:28;;;;;;;10.93;4.78;;;;;;;0.25;100.00;99333.44;6100721;19;20014;-75
2023/11/18 08:36:32;;;;;;;9.55;5.20;;;;;;;0.26;100.00;99338.56;6099777;19;20007;-75
2023/11/18 08:38:32;;;;;;;9.90;5.55;;;;;;;0.30;100.00;99329.81;6101170;19;20561;-75
2023/11/18 08:40:34;;;;;;;11.50;6.32;;;;;;;0.37;100.00;99342.00;6100715;19;20006;-75
2023/11/18 08:42:35;;;;;;;8.05;5.55;;;;;;;0.47;100.00;99341.06;6101054;19;20032;-75
2023/11/18 08:44:35;;;;;;;8.50;5.97;;;;;;;0.50;100.00;99335.84;6101525;19;20006;-75
2023/11/18 08:46:35;;;;;;;9.75;5.72;;;;;;;0.53;100.00;99335.25;6098797;19;20010;-75
2023/11/18 08:48:36;;;;;;;7.82;5.38;;;;;;;0.55;100.00;99335.78;6101062;19;20026;-75
2023/11/18 08:50:39;;;;;;;10.77;5.15;;;;;;;0.63;100.00;99333.50;6100473;19;20454;-75
2023/11/18 08:52:47;;;;;;;14.63;4.78;;;;;;;0.69;100.00;99335.06;6101508;19;20016;-75
2023/11/18 08:57:23;;;;;;;10.43;4.65;;;;;;;0.79;100.00;99334.94;6093865;19;20745;-75
2023/11/18 08:59:27;;;;;;;12.85;4.68;;;;;;;0.82;100.00;99337.06;6094261;19;20352;-75
2023/11/18 09:01:28;;;;;;;6.82;4.32;;;;;;;0.87;100.00;99330.75;6100542;19;20002;-75
2023/11/18 09:03:34;;;;;;;10.85;7.63;;;;;;;0.87;100.00;99328.03;6096955;19;20006;-75
2023/11/18 09:05:35;;;;;;;8.55;7.10;;;;;;;0.87;100.00;99326.09;6097757;19;20034;-75
2023/11/18 09:07:36;;;;;;;9.03;7.47;;;;;;;0.86;100.00;99340.84;6098540;19;20053;-75
2023/11/18 09:09:39;;;;;;;12.43;6.20;;;;;;;0.88;100.00;99340.53;6098219;19;20009;-75
2023/11/18 09:11:41;;;;;;;11.50;6.40;;;;;;;0.87;100.00;99341.66;6098392;19;20049;-75
2023/11/18 09:13:49;;;;;;;9.85;6.68;;;;;;;0.87;100.00;99328.03;6098279;19;20006;-75
2023/11/18 09:15:49;;;;;;;10.82;5.30;;;;;;;0.85;100.00;99328.31;6099089;19;20011;-75
2023/11/18 09:17:50;;;;;;;6.63;4.47;;;;;;;0.87;100.00;99330.75;6098079;19;20009;-75
2023/11/18 09:19:52;;;;;;;10.88;5.28;;;;;;;0.87;100.00;99323.38;6097173;19;20002;-74
2023/11/18 09:21:54;;;;;;;10.63;4.75;;;;;;;0.89;100.00;99333.97;6097704;19;20478;-75
2023/11/18 09:23:56;;;;;;;9.17;5.60;;;;;;;0.91;100.00;99332.59;6099743;19;19998;-75
2023/11/18 09:25:56;;;;;;;9.40;5.47;;;;;;;0.94;100.00;99328.47;6098161;19;20256;-75
2023/11/18 09:27:58;;;;;;;7.85;4.82;;;;;;;0.99;100.00;99331.91;6096064;19;20094;-75
2023/11/18 09:30:00;;;;;;;6.45;4.20;;;;;;;1.00;100.00;99328.13;6098198;19;20006;-74